createdAt,value
2022-10-03T00:02:49.941Z,102500.31
2022-10-03T00:08:21.846Z,102500.69
2022-10-03T00:14:08.271Z,102504.66
2022-10-03T00:19:48.203Z,102510.34
2022-10-03T00:24:55.618Z,102515.19
2022-10-03T00:30:02.207Z,102518.28
2022-10-03T00:35:20.130Z,102513.31
2022-10-03T00:40:33.698Z,102523.72
2022-10-03T00:45:38.606Z,102515.19
2022-10-03T00:50:40.031Z,102528.31
2022-10-03T00:56:07.670Z,102533.00
2022-10-03T01:01:36.156Z,102539.81
2022-10-03T01:06:47.474Z,102553.81
2022-10-03T01:12:23.237Z,102556.66
2022-10-03T01:17:53.965Z,102552.44
2022-10-03T01:23:17.623Z,102547.72
2022-10-03T01:28:46.644Z,102562.97
2022-10-03T01:34:01.092Z,102558.97
2022-10-03T01:39:14.978Z,102560.94
2022-10-03T01:44:37.949Z,102563.91
2022-10-03T01:49:48.566Z,102563.16
2022-10-03T01:55:11.982Z,102569.47
2022-10-03T02:00:16.063Z,102569.25
2022-10-03T02:05:48.344Z,102575.44
2022-10-03T02:10:55.769Z,102575.66
2022-10-03T02:16:33.637Z,102569.63
2022-10-03T02:21:47.432Z,102565.91
2022-10-03T02:27:27.459Z,102572.59
2022-10-03T02:32:53.697Z,102578.56
2022-10-03T02:38:21.412Z,102575.47
2022-10-03T02:43:42.739Z,102573.59
2022-10-03T02:49:21.824Z,102573.75
2022-10-03T02:54:50.761Z,102581.63
2022-10-03T03:00:06.665Z,102592.88
2022-10-03T03:05:41.940Z,102594.22
2022-10-03T03:11:09.350Z,102597.44
2022-10-03T03:16:53.110Z,102588.88
2022-10-03T03:22:14.400Z,102595.53
2022-10-03T03:27:35.127Z,102597.09
2022-10-03T03:32:48.696Z,102594.72
2022-10-03T03:38:11.975Z,102591.69
2022-10-03T03:43:39.379Z,102603.38
2022-10-03T03:49:09.092Z,102601.09
2022-10-03T03:54:34.438Z,102601.44
2022-10-03T04:00:04.443Z,102592.50
2022-10-03T04:05:14.950Z,102600.97
2022-10-03T04:11:11.915Z,102582.28
2022-10-03T04:16:50.237Z,102594.28
2022-10-03T04:22:19.912Z,102593.50
2022-10-03T04:27:54.414Z,102601.91
2022-10-03T04:33:18.356Z,102596.91
2022-10-03T04:38:44.635Z,102610.75
2022-10-03T04:44:16.734Z,102613.81
2022-10-03T04:49:39.952Z,102610.44
2022-10-03T04:55:00.080Z,102621.31
2022-10-03T05:00:23.656Z,102618.25
2022-10-03T05:05:51.540Z,102618.25
2022-10-03T05:11:08.052Z,102613.00
2022-10-03T05:16:19.166Z,102623.88
2022-10-03T05:21:32.982Z,102632.78
2022-10-03T05:26:46.782Z,102627.94
2022-10-03T05:32:12.589Z,102623.19
2022-10-03T05:37:33.110Z,102631.94
2022-10-03T05:42:47.883Z,102640.03
2022-10-03T05:48:09.380Z,102636.47
2022-10-03T05:53:35.215Z,102635.41
2022-10-03T05:58:47.332Z,102641.00
2022-10-03T06:04:09.840Z,102634.09
2022-10-03T06:09:37.659Z,102632.72
2022-10-03T06:14:57.817Z,102640.91
2022-10-03T06:20:10.867Z,102641.78
2022-10-03T06:25:53.323Z,102639.19
2022-10-03T06:31:06.542Z,102646.16
2022-10-03T06:36:36.161Z,102643.94
2022-10-03T06:42:04.125Z,102657.09
2022-10-03T06:47:18.571Z,102654.75
2022-10-03T06:52:25.691Z,102657.84
2022-10-03T06:57:34.246Z,102651.81
2022-10-03T07:03:23.457Z,102663.22
2022-10-03T07:08:56.098Z,102661.94
2022-10-03T07:14:19.541Z,102670.63
2022-10-03T07:19:39.798Z,102674.53
2022-10-03T07:25:12.865Z,102677.13
2022-10-03T07:30:24.426Z,102689.34
2022-10-03T07:35:59.696Z,102686.00
2022-10-03T07:41:21.340Z,102680.63
2022-10-03T07:46:37.658Z,102693.59
2022-10-03T07:51:52.360Z,102700.06
2022-10-03T07:57:04.063Z,102703.16
2022-10-03T08:02:33.239Z,102711.97
2022-10-03T08:07:53.346Z,102716.94
2022-10-03T08:13:14.597Z,102724.88
2022-10-03T08:18:28.111Z,102721.03
2022-10-03T08:23:43.088Z,102718.91
2022-10-03T08:29:08.729Z,102722.94
2022-10-03T08:34:27.213Z,102725.25
2022-10-03T08:40:17.108Z,102725.09
2022-10-03T08:46:12.980Z,102733.03
2022-10-03T08:51:42.459Z,102739.81
2022-10-03T08:57:21.500Z,102740.06
2022-10-03T09:03:31.578Z,102739.00
2022-10-03T09:08:52.278Z,102738.41
2022-10-03T09:14:11.719Z,102730.97
2022-10-03T09:19:16.726Z,102719.13
2022-10-03T09:24:38.102Z,102721.91
2022-10-03T09:30:04.506Z,102729.03
2022-10-03T09:35:20.795Z,102713.72
2022-10-03T09:40:40.841Z,102722.16
2022-10-03T09:46:01.710Z,102712.41
2022-10-03T09:51:09.327Z,102706.59
2022-10-03T09:56:25.897Z,102712.38
2022-10-03T10:01:58.028Z,102713.22
2022-10-03T10:07:30.170Z,102707.28
2022-10-03T10:13:15.716Z,102711.47
2022-10-03T10:18:41.981Z,102708.22
2022-10-03T10:23:50.622Z,102708.59
2022-10-03T10:29:33.152Z,102716.09
2022-10-03T10:34:59.450Z,102706.84
2022-10-03T10:40:38.733Z,102711.63
2022-10-03T10:46:21.391Z,102709.91
2022-10-03T10:51:44.722Z,102705.41
2022-10-03T10:57:02.795Z,102717.00
2022-10-03T11:02:16.057Z,102708.75
2022-10-03T11:07:42.738Z,102697.88
2022-10-03T11:12:45.282Z,102692.38
2022-10-03T11:18:25.044Z,102688.75
2022-10-03T11:24:04.847Z,102689.63
2022-10-03T11:29:31.397Z,102696.69
2022-10-03T11:34:49.426Z,102693.22
2022-10-03T11:40:21.788Z,102694.44
2022-10-03T11:45:29.217Z,102697.19
2022-10-03T11:50:39.533Z,102683.53
2022-10-03T11:55:47.069Z,102697.50
2022-10-03T12:01:00.051Z,102685.91
2022-10-03T12:06:47.436Z,102702.00
2022-10-03T12:11:54.361Z,102684.22
2022-10-03T12:17:08.222Z,102683.88
2022-10-03T12:22:26.558Z,102687.00
2022-10-03T12:28:00.560Z,102674.03
2022-10-03T12:33:17.146Z,102678.31
2022-10-03T12:38:34.893Z,102654.34
2022-10-03T12:44:05.232Z,102662.81
2022-10-03T12:49:38.342Z,102660.44
2022-10-03T12:55:07.037Z,102653.19
2022-10-03T13:00:28.199Z,102638.34
2022-10-03T13:06:07.360Z,102651.31
2022-10-03T13:11:37.622Z,102629.38
2022-10-03T13:16:55.566Z,102644.22
2022-10-03T13:22:12.271Z,102644.91
2022-10-03T13:27:29.248Z,102643.53
2022-10-03T13:32:33.897Z,102640.59
2022-10-03T13:37:53.973Z,102618.84
2022-10-03T13:42:57.697Z,102630.91
2022-10-03T13:48:10.751Z,102627.66
2022-10-03T13:53:16.650Z,102625.06
2022-10-03T13:58:55.588Z,102623.31
2022-10-03T14:04:35.660Z,102614.88
2022-10-03T14:10:12.985Z,102611.78
2022-10-03T14:15:41.777Z,102608.31
2022-10-03T14:21:01.188Z,102616.09
2022-10-03T14:26:25.326Z,102606.22
2022-10-03T14:31:39.436Z,102593.66
2022-10-03T14:36:54.249Z,102595.69
2022-10-03T14:41:55.738Z,102590.00
2022-10-03T14:47:00.590Z,102577.78
2022-10-03T14:52:09.404Z,102567.75
2022-10-03T14:57:47.684Z,102572.25
2022-10-03T15:02:56.278Z,102572.94
2022-10-03T15:07:58.028Z,102568.28
2022-10-03T15:13:06.238Z,102572.94
2022-10-03T15:18:15.270Z,102570.00
2022-10-03T15:23:23.321Z,102567.88
2022-10-03T15:28:30.285Z,102569.25
2022-10-03T15:33:34.752Z,102556.13
2022-10-03T15:38:41.842Z,102561.97
2022-10-03T15:43:57.816Z,102568.66
2022-10-03T15:49:06.032Z,102556.59
2022-10-03T15:54:12.701Z,102556.78
2022-10-03T15:59:27.395Z,102545.56
2022-10-03T16:04:35.774Z,102539.19
2022-10-03T16:10:01.521Z,102547.78
2022-10-03T16:15:02.932Z,102538.81
2022-10-03T16:20:19.471Z,102528.97
2022-10-03T16:25:53.324Z,102520.13
2022-10-03T16:31:03.128Z,102520.06
2022-10-03T16:36:08.162Z,102505.38
2022-10-03T16:41:19.273Z,102503.50
2022-10-03T16:46:22.993Z,102502.69
2022-10-03T16:51:38.521Z,102509.50
2022-10-03T16:56:45.776Z,102501.19
2022-10-03T17:01:55.084Z,102492.56
2022-10-03T17:06:59.800Z,102494.56
2022-10-03T17:12:03.132Z,102494.09
2022-10-03T17:17:21.925Z,102502.03
2022-10-03T17:22:32.054Z,102498.13
2022-10-03T17:27:39.954Z,102481.50
2022-10-03T17:32:44.930Z,102482.16
2022-10-03T17:38:37.558Z,102498.88
2022-10-03T17:43:46.555Z,102500.00
2022-10-03T17:49:19.475Z,102507.91
2022-10-03T17:54:26.497Z,102505.38
2022-10-03T17:59:32.654Z,102500.38
2022-10-03T18:04:42.086Z,102486.13
2022-10-03T18:09:48.042Z,102462.78
2022-10-03T18:15:16.214Z,102476.41
2022-10-03T18:20:33.254Z,102462.56
2022-10-03T18:26:20.586Z,102467.59
2022-10-03T18:31:22.534Z,102466.72
2022-10-03T18:36:49.320Z,102468.63
2022-10-03T18:41:59.664Z,102472.38
2022-10-03T18:47:21.797Z,102475.25
2022-10-03T18:52:33.569Z,102464.44
2022-10-03T18:57:51.076Z,102447.13
2022-10-03T19:02:57.191Z,102439.59
2022-10-03T19:08:17.368Z,102439.75
2022-10-03T19:13:48.452Z,102430.66
2022-10-03T19:19:15.352Z,102430.50
2022-10-03T19:24:39.811Z,102449.56
2022-10-03T19:29:47.033Z,102451.69
2022-10-03T19:34:50.725Z,102449.41
2022-10-03T19:39:52.665Z,102448.13
2022-10-03T19:44:59.611Z,102460.56
2022-10-03T19:50:31.965Z,102465.91
2022-10-03T19:55:37.260Z,102455.41
2022-10-03T20:00:40.415Z,102453.22
2022-10-03T20:06:02.070Z,102452.34
2022-10-03T20:11:16.459Z,102454.94
2022-10-03T20:16:25.255Z,102453.63
2022-10-03T20:21:29.400Z,102460.22
2022-10-03T20:26:43.999Z,102460.84
2022-10-03T20:31:46.754Z,102449.84
2022-10-03T20:36:54.595Z,102457.31
2022-10-03T20:42:04.626Z,102448.09
2022-10-03T20:47:11.353Z,102456.47
2022-10-03T20:52:19.286Z,102440.59
2022-10-03T20:57:26.713Z,102432.78
2022-10-03T21:02:31.385Z,102435.94
2022-10-03T21:07:43.048Z,102425.53
2022-10-03T21:12:51.425Z,102420.91
2022-10-03T21:17:56.661Z,102414.41
2022-10-03T21:23:03.550Z,102418.00
2022-10-03T21:28:18.291Z,102422.34
2022-10-03T21:33:24.887Z,102420.28
2022-10-03T21:38:32.882Z,102418.28
2022-10-03T21:43:56.610Z,102395.59
2022-10-03T21:49:21.045Z,102381.31
2022-10-03T21:54:25.360Z,102378.72
2022-10-03T21:59:29.702Z,102374.25
2022-10-03T22:04:40.377Z,102366.72
2022-10-03T22:09:51.080Z,102358.47
2022-10-03T22:15:18.685Z,102355.72
2022-10-03T22:20:26.138Z,102351.66
2022-10-03T22:25:40.204Z,102343.16
2022-10-03T22:30:52.039Z,102337.25
2022-10-03T22:35:55.722Z,102353.25
2022-10-03T22:41:01.118Z,102343.16
2022-10-03T22:46:04.959Z,102341.09
2022-10-03T22:51:09.635Z,102334.63
2022-10-03T22:56:48.375Z,102342.50
2022-10-03T23:01:52.827Z,102337.88
2022-10-03T23:07:19.361Z,102331.41
2022-10-03T23:12:24.486Z,102326.78
2022-10-03T23:17:56.707Z,102310.13
2022-10-03T23:23:02.627Z,102305.50
2022-10-03T23:28:18.207Z,102305.69
2022-10-03T23:33:32.417Z,102299.31
2022-10-03T23:38:33.813Z,102290.22
2022-10-03T23:43:46.158Z,102289.50
2022-10-03T23:48:52.057Z,102286.06
2022-10-03T23:54:02.467Z,102284.47
2022-10-03T23:59:03.888Z,102280.31
